createdAt,value
2023-04-04T00:00:35.181Z,99763.09
2023-04-04T00:03:04.816Z,99766.02
2023-04-04T00:05:35.912Z,99761.27
2023-04-04T00:08:08.126Z,99762.66
2023-04-04T00:10:38.768Z,99760.95
2023-04-04T00:13:11.568Z,99755.67
2023-04-04T00:15:41.792Z,99758.54
2023-04-04T00:18:10.410Z,99754.35
2023-04-04T00:20:41.054Z,99753.94
2023-04-04T00:23:11.423Z,99751.98
2023-04-04T00:25:41.524Z,99747.80
2023-04-04T00:28:10.205Z,99748.48
2023-04-04T00:30:39.982Z,99750.88
2023-04-04T00:33:09.186Z,99754.23
2023-04-04T00:35:37.969Z,99752.92
2023-04-04T00:38:08.001Z,99752.17
2023-04-04T00:40:48.257Z,99750.31
2023-04-04T00:43:18.889Z,99751.49
2023-04-04T00:45:47.842Z,99753.56
2023-04-04T00:48:21.532Z,99756.88
2023-04-04T00:50:55.404Z,99760.35
2023-04-04T00:53:31.023Z,99767.79
2023-04-04T00:56:09.283Z,99767.06
2023-04-04T00:58:38.340Z,99766.30
2023-04-04T01:01:11.670Z,99762.39
2023-04-04T01:03:49.113Z,99760.80
2023-04-04T01:06:18.929Z,99761.08
2023-04-04T01:08:52.850Z,99759.14
2023-04-04T01:11:23.888Z,99756.09
2023-04-04T01:13:52.938Z,99751.90
2023-04-04T01:16:24.480Z,99753.87
2023-04-04T01:18:53.159Z,99754.00
2023-04-04T01:21:22.562Z,99756.81
2023-04-04T01:23:59.905Z,99751.64
2023-04-04T01:26:32.484Z,99752.18
2023-04-04T01:29:07.461Z,99755.50
2023-04-04T01:32:34.826Z,99757.71
2023-04-04T01:35:12.992Z,99760.91
2023-04-04T01:37:59.448Z,99756.89
2023-04-04T01:40:30.048Z,99759.17
2023-04-04T01:43:00.089Z,99757.98
2023-04-04T01:45:33.133Z,99761.77
2023-04-04T01:48:04.865Z,99767.55
2023-04-04T01:50:35.254Z,99769.23
2023-04-04T01:53:06.506Z,99771.61
2023-04-04T01:55:52.342Z,99768.96
2023-04-04T01:58:23.415Z,99771.85
2023-04-04T02:00:54.313Z,99778.05
2023-04-04T02:03:24.682Z,99782.25
2023-04-04T02:05:55.602Z,99782.55
2023-04-04T02:08:24.499Z,99784.02
2023-04-04T02:10:54.615Z,99783.85
2023-04-04T02:13:29.994Z,99779.48
2023-04-04T02:16:06.442Z,99778.81
2023-04-04T02:18:39.485Z,99780.88
2023-04-04T02:21:11.467Z,99782.89
2023-04-04T02:23:40.573Z,99774.75
2023-04-04T02:26:09.348Z,99776.29
2023-04-04T02:28:40.585Z,99771.15
2023-04-04T02:31:10.897Z,99768.96
2023-04-04T02:33:41.023Z,99767.63
2023-04-04T02:36:14.071Z,99763.25
2023-04-04T02:38:43.824Z,99759.43
2023-04-04T02:41:12.596Z,99760.79
2023-04-04T02:43:41.964Z,99758.06
2023-04-04T02:46:20.949Z,99753.40
2023-04-04T02:48:56.177Z,99745.90
2023-04-04T02:51:29.845Z,99742.88
2023-04-04T02:54:03.314Z,99736.45
2023-04-04T02:56:39.579Z,99736.39
2023-04-04T02:59:12.553Z,99731.83
2023-04-04T03:01:42.703Z,99732.90
2023-04-04T03:04:13.442Z,99725.37
2023-04-04T03:06:48.567Z,99728.65
2023-04-04T03:09:18.064Z,99731.80
2023-04-04T03:11:48.888Z,99737.80
2023-04-04T03:14:17.891Z,99746.26
2023-04-04T03:16:51.140Z,99750.61
2023-04-04T03:19:19.840Z,99758.52
2023-04-04T03:21:50.842Z,99760.63
2023-04-04T03:24:20.228Z,99763.09
2023-04-04T03:26:56.102Z,99765.48
2023-04-04T03:29:25.344Z,99767.87
2023-04-04T03:31:55.517Z,99770.46
2023-04-04T03:34:25.421Z,99769.63
2023-04-04T03:36:55.639Z,99769.72
2023-04-04T03:39:36.342Z,99776.84
2023-04-04T03:42:09.182Z,99781.02
2023-04-04T03:44:52.833Z,99791.14
2023-04-04T03:47:33.788Z,99791.15
2023-04-04T03:50:04.240Z,99786.60
2023-04-04T03:52:38.641Z,99782.52
2023-04-04T03:55:08.691Z,99781.16
2023-04-04T03:57:38.383Z,99781.72
2023-04-04T04:00:12.844Z,99776.13
2023-04-04T04:02:46.884Z,99779.02
2023-04-04T04:05:26.892Z,99780.69
2023-04-04T04:07:56.941Z,99786.30
2023-04-04T04:10:30.771Z,99789.00
2023-04-04T04:13:03.136Z,99788.83
2023-04-04T04:15:32.104Z,99791.16
2023-04-04T04:18:10.114Z,99791.10
2023-04-04T04:20:40.951Z,99795.42
2023-04-04T04:23:11.988Z,99806.05
2023-04-04T04:25:41.961Z,99810.34
2023-04-04T04:28:21.201Z,99810.23
2023-04-04T04:30:51.591Z,99806.97
2023-04-04T04:33:33.593Z,99808.84
2023-04-04T04:36:08.462Z,99811.53
2023-04-04T04:38:48.160Z,99820.77
2023-04-04T04:41:17.859Z,99816.34
2023-04-04T04:43:51.371Z,99817.30
2023-04-04T04:46:21.550Z,99814.02
2023-04-04T04:48:55.842Z,99822.48
2023-04-04T04:51:28.846Z,99821.13
2023-04-04T04:53:58.443Z,99826.08
2023-04-04T04:56:29.497Z,99826.02
2023-04-04T04:59:03.831Z,99832.91
2023-04-04T05:01:35.368Z,99832.24
2023-04-04T05:04:07.192Z,99830.19
2023-04-04T05:06:43.616Z,99827.63
2023-04-04T05:09:15.704Z,99822.45
2023-04-04T05:11:48.352Z,99822.36
2023-04-04T05:14:17.558Z,99822.85
2023-04-04T05:16:54.076Z,99827.94
2023-04-04T05:19:24.891Z,99826.66
2023-04-04T05:22:00.268Z,99824.05
2023-04-04T05:24:43.704Z,99824.88
2023-04-04T05:27:16.520Z,99821.68
2023-04-04T05:29:49.240Z,99819.61
2023-04-04T05:32:19.669Z,99823.62
2023-04-04T05:34:56.514Z,99828.09
2023-04-04T05:37:27.537Z,99832.43
2023-04-04T05:39:58.968Z,99842.85
2023-04-04T05:42:29.454Z,99850.22
2023-04-04T05:45:00.324Z,99859.41
2023-04-04T05:47:32.293Z,99849.27
2023-04-04T05:50:04.132Z,99821.34
2023-04-04T05:52:37.119Z,99803.16
2023-04-04T05:55:08.055Z,99810.80
2023-04-04T05:57:36.501Z,99827.67
2023-04-04T06:00:09.908Z,99841.85
2023-04-04T06:03:05.100Z,99852.02
2023-04-04T06:05:34.512Z,99849.23
2023-04-04T06:08:03.526Z,99851.49
2023-04-04T06:10:32.641Z,99852.48
2023-04-04T06:13:03.170Z,99863.70
2023-04-04T06:15:33.403Z,99872.25
2023-04-04T06:18:02.417Z,99868.33
2023-04-04T06:20:32.455Z,99871.29
2023-04-04T06:23:05.026Z,99868.14
2023-04-04T06:25:37.962Z,99868.11
2023-04-04T06:28:11.774Z,99866.41
2023-04-04T06:30:40.879Z,99865.05
2023-04-04T06:33:14.320Z,99867.70
2023-04-04T06:35:47.981Z,99873.00
2023-04-04T06:42:03.133Z,99868.22
2023-04-04T06:45:18.529Z,99867.42
2023-04-04T06:48:04.024Z,99870.17
2023-04-04T06:50:36.522Z,99867.80
2023-04-04T06:53:10.187Z,99866.74
2023-04-04T06:55:39.807Z,99863.40
2023-04-04T06:58:10.964Z,99861.94
2023-04-04T07:00:42.355Z,99869.14
2023-04-04T07:03:14.413Z,99863.92
2023-04-04T07:05:44.927Z,99858.09
2023-04-04T07:08:19.501Z,99857.77
2023-04-04T07:10:57.338Z,99858.71
2023-04-04T07:13:28.374Z,99857.45
2023-04-04T07:15:58.124Z,99858.02
2023-04-04T07:18:32.276Z,99856.98
2023-04-04T07:21:20.335Z,99856.53
2023-04-04T07:24:04.575Z,99864.00
2023-04-04T07:26:38.488Z,99869.34
2023-04-04T07:29:07.752Z,99866.34
2023-04-04T07:31:36.859Z,99870.08
2023-04-04T07:34:11.464Z,99873.50
2023-04-04T07:36:40.744Z,99875.50
2023-04-04T07:39:11.708Z,99876.73
2023-04-04T07:41:42.318Z,99878.27
2023-04-04T07:44:17.520Z,99878.94
2023-04-04T07:47:02.350Z,99881.60
2023-04-04T07:49:33.164Z,99881.16
2023-04-04T07:52:03.406Z,99879.41
2023-04-04T07:54:34.680Z,99882.63
2023-04-04T07:57:07.533Z,99888.38
2023-04-04T07:59:37.453Z,99887.58
2023-04-04T08:02:07.570Z,99891.22
2023-04-04T08:04:36.606Z,99893.81
2023-04-04T08:07:05.898Z,99889.65
2023-04-04T08:09:36.667Z,99887.71
2023-04-04T08:12:06.727Z,99885.30
2023-04-04T08:14:36.812Z,99887.38
2023-04-04T08:17:07.492Z,99884.38
2023-04-04T08:19:41.240Z,99886.56
2023-04-04T08:22:10.294Z,99889.13
2023-04-04T08:24:40.699Z,99892.08
2023-04-04T08:27:11.810Z,99892.63
2023-04-04T08:29:47.245Z,99887.65
2023-04-04T08:32:17.800Z,99885.01
2023-04-04T08:34:50.958Z,99880.48
2023-04-04T08:37:21.933Z,99881.47
2023-04-04T08:39:55.505Z,99881.61
2023-04-04T08:42:26.506Z,99881.84
2023-04-04T08:44:56.584Z,99885.08
2023-04-04T08:47:25.225Z,99887.70
2023-04-04T08:49:55.329Z,99888.39
2023-04-04T08:52:25.929Z,99888.98
2023-04-04T08:54:54.558Z,99885.70
2023-04-04T08:57:23.313Z,99886.33
2023-04-04T08:59:52.829Z,99891.59
2023-04-04T09:02:46.353Z,99893.71
2023-04-04T09:05:16.493Z,99891.20
2023-04-04T09:07:47.425Z,99893.12
2023-04-04T09:10:17.032Z,99895.38
2023-04-04T09:12:47.704Z,99898.64
2023-04-04T09:15:20.292Z,99903.62
2023-04-04T09:17:49.324Z,99908.65
2023-04-04T09:20:47.739Z,99907.77
2023-04-04T09:23:18.803Z,99907.47
2023-04-04T09:28:27.419Z,99910.25
2023-04-04T09:30:57.281Z,99910.41
2023-04-04T09:33:30.524Z,99909.89
2023-04-04T09:36:04.353Z,99914.45
2023-04-04T09:38:45.701Z,99912.56
2023-04-04T09:41:18.403Z,99913.33
2023-04-04T09:43:50.539Z,99915.88
2023-04-04T09:46:21.494Z,99914.96
2023-04-04T09:49:05.933Z,99909.31
2023-04-04T09:51:39.208Z,99912.23
2023-04-04T09:54:26.173Z,99907.77
2023-04-04T09:57:00.477Z,99906.63
2023-04-04T09:59:30.191Z,99909.11
2023-04-04T10:01:59.766Z,99908.45
2023-04-04T10:04:33.730Z,99905.36
2023-04-04T10:07:03.009Z,99902.64
2023-04-04T10:09:37.971Z,99901.92
2023-04-04T10:12:12.598Z,99901.35
2023-04-04T10:14:47.990Z,99903.93
2023-04-04T10:17:17.075Z,99898.86
2023-04-04T10:19:48.561Z,99900.02
2023-04-04T10:22:21.440Z,99899.65
2023-04-04T10:24:50.708Z,99903.95
2023-04-04T10:27:21.001Z,99897.64
2023-04-04T10:29:50.726Z,99897.33
2023-04-04T10:32:30.982Z,99894.34
2023-04-04T10:35:08.142Z,99889.36
2023-04-04T10:37:44.860Z,99891.70
2023-04-04T10:40:22.771Z,99889.48
2023-04-04T10:42:55.158Z,99892.31
2023-04-04T10:45:23.865Z,99883.23
2023-04-04T10:47:54.597Z,99883.84
2023-04-04T10:50:27.094Z,99884.42
2023-04-04T10:53:00.670Z,99882.77
2023-04-04T10:55:35.974Z,99881.10
2023-04-04T10:58:04.957Z,99881.98
2023-04-04T11:00:56.912Z,99882.41
2023-04-04T11:03:26.316Z,99881.75
2023-04-04T11:06:03.384Z,99880.48
2023-04-04T11:08:38.514Z,99884.77
2023-04-04T11:11:19.853Z,99890.17
2023-04-04T11:14:02.885Z,99890.98
2023-04-04T11:16:46.118Z,99890.46
2023-04-04T11:19:17.332Z,99890.55
2023-04-04T11:21:48.437Z,99893.82
2023-04-04T11:25:27.195Z,99889.05
2023-04-04T11:27:58.978Z,99895.15
2023-04-04T11:30:28.032Z,99895.84
2023-04-04T11:33:06.601Z,99897.88
2023-04-04T11:35:40.692Z,99901.73
2023-04-04T11:38:19.188Z,99899.96
2023-04-04T11:40:56.339Z,99901.36
2023-04-04T11:43:31.091Z,99902.66
2023-04-04T11:48:53.181Z,99897.02
2023-04-04T11:51:22.659Z,99896.55
2023-04-04T11:53:56.434Z,99896.25
2023-04-04T11:56:25.071Z,99895.73
2023-04-04T11:59:01.597Z,99895.40
2023-04-04T12:01:36.578Z,99897.91
2023-04-04T12:04:05.644Z,99894.80
2023-04-04T12:06:34.977Z,99893.00
2023-04-04T12:09:06.323Z,99891.10
2023-04-04T12:11:36.458Z,99886.86
2023-04-04T12:14:04.657Z,99889.23
2023-04-04T12:16:33.284Z,99894.27
2023-04-04T12:19:04.177Z,99898.27
2023-04-04T12:21:36.935Z,99894.05
2023-04-04T12:24:10.084Z,99898.67
2023-04-04T12:26:42.699Z,99896.10
2023-04-04T12:29:11.620Z,99897.52
2023-04-04T12:31:41.193Z,99895.73
2023-04-04T12:34:39.578Z,99893.96
2023-04-04T12:37:09.248Z,99891.44
2023-04-04T12:39:36.820Z,99888.38
2023-04-04T12:42:07.022Z,99881.70
2023-04-04T12:44:35.746Z,99882.12
2023-04-04T12:47:07.480Z,99876.52
2023-04-04T12:49:45.356Z,99878.18
2023-04-04T12:52:29.946Z,99873.88
2023-04-04T12:55:08.446Z,99874.61
2023-04-04T12:57:38.885Z,99874.61
2023-04-04T13:00:08.713Z,99873.90
2023-04-04T13:02:39.001Z,99869.61
2023-04-04T13:05:13.519Z,99873.35
2023-04-04T13:07:43.870Z,99869.11
2023-04-04T13:10:15.576Z,99871.83
2023-04-04T13:13:00.920Z,99869.59
2023-04-04T13:15:49.692Z,99869.34
2023-04-04T13:18:40.275Z,99869.05
2023-04-04T13:21:13.451Z,99868.38
2023-04-04T13:23:42.579Z,99866.25
2023-04-04T13:29:14.855Z,99863.63
2023-04-04T13:31:49.593Z,99860.27
2023-04-04T13:34:23.769Z,99857.42
2023-04-04T13:36:53.220Z,99854.02
2023-04-04T13:39:25.624Z,99853.14
2023-04-04T13:41:56.902Z,99858.60
2023-04-04T13:44:27.279Z,99851.81
2023-04-04T13:46:58.541Z,99852.20
2023-04-04T13:49:27.561Z,99851.27
2023-04-04T13:51:55.353Z,99851.98
2023-04-04T13:54:22.335Z,99848.42
2023-04-04T13:56:52.587Z,99842.30
2023-04-04T13:59:22.785Z,99842.64
2023-04-04T14:01:57.201Z,99839.35
2023-04-04T14:04:27.072Z,99834.91
2023-04-04T14:06:55.530Z,99839.14
2023-04-04T14:09:22.991Z,99839.98
2023-04-04T14:11:54.838Z,99838.52
2023-04-04T14:14:29.289Z,99838.41
2023-04-04T14:16:57.806Z,99837.74
2023-04-04T14:19:29.507Z,99839.17
2023-04-04T14:21:57.061Z,99843.75
2023-04-04T14:24:25.458Z,99843.41
2023-04-04T14:26:55.255Z,99840.36
2023-04-04T14:29:23.680Z,99838.68
2023-04-04T14:31:52.465Z,99840.83
2023-04-04T14:34:28.678Z,99838.57
2023-04-04T14:36:57.454Z,99836.44
2023-04-04T14:39:26.254Z,99833.79
2023-04-04T14:41:57.199Z,99831.87
2023-04-04T14:44:28.184Z,99833.66
2023-04-04T14:46:58.577Z,99836.84
2023-04-04T14:49:31.160Z,99834.06
2023-04-04T14:52:02.693Z,99832.45
2023-04-04T14:54:40.692Z,99831.25
2023-04-04T14:57:15.243Z,99832.25
2023-04-04T14:59:49.772Z,99833.94
2023-04-04T15:02:31.493Z,99835.90
2023-04-04T15:05:08.806Z,99835.60
2023-04-04T15:10:27.994Z,99829.06
2023-04-04T15:13:04.861Z,99831.98
2023-04-04T15:15:37.039Z,99837.41
2023-04-04T15:18:07.427Z,99843.65
2023-04-04T15:20:44.826Z,99844.31
2023-04-04T15:23:18.769Z,99845.47
2023-04-04T15:25:48.077Z,99844.42
2023-04-04T15:35:19.823Z,99840.83
2023-04-04T15:37:52.825Z,99844.45
2023-04-04T15:40:25.639Z,99842.02
2023-04-04T15:42:57.951Z,99842.92
2023-04-04T15:45:34.917Z,99841.42
2023-04-04T15:48:06.733Z,99841.56
2023-04-04T15:50:39.406Z,99837.52
2023-04-04T15:53:12.058Z,99841.36
2023-04-04T15:55:43.358Z,99837.96
2023-04-04T15:58:12.282Z,99835.91
2023-04-04T16:00:47.385Z,99835.58
2023-04-04T16:03:19.604Z,99832.25
2023-04-04T16:05:53.086Z,99831.20
2023-04-04T16:08:26.284Z,99832.95
2023-04-04T16:11:03.024Z,99829.04
2023-04-04T16:13:35.745Z,99830.30
2023-04-04T16:16:15.262Z,99827.57
2023-04-04T16:18:45.365Z,99826.58
2023-04-04T16:21:16.503Z,99824.90
2023-04-04T16:23:52.404Z,99822.67
2023-04-04T16:26:24.627Z,99822.38
2023-04-04T16:28:56.234Z,99818.89
2023-04-04T16:31:30.116Z,99815.62
2023-04-04T16:34:28.756Z,99810.80
2023-04-04T16:37:04.220Z,99810.98
2023-04-04T16:39:34.273Z,99806.11
2023-04-04T16:42:03.656Z,99802.10
2023-04-04T16:44:36.550Z,99803.40
2023-04-04T16:47:08.577Z,99797.79
2023-04-04T16:49:43.708Z,99793.73
2023-04-04T16:52:15.439Z,99794.55
2023-04-04T16:54:46.330Z,99788.54
2023-04-04T16:57:18.694Z,99789.24
2023-04-04T16:59:52.088Z,99783.88
2023-04-04T17:02:20.754Z,99781.89
2023-04-04T17:04:54.774Z,99781.85
2023-04-04T17:07:24.446Z,99779.61
2023-04-04T17:09:53.416Z,99783.65
2023-04-04T17:12:25.606Z,99781.35
2023-04-04T17:14:58.536Z,99777.45
2023-04-04T17:17:29.748Z,99777.17
2023-04-04T17:20:01.048Z,99776.86
2023-04-04T17:22:32.908Z,99775.36
2023-04-04T17:25:04.553Z,99769.00
2023-04-04T17:27:33.971Z,99768.42
2023-04-04T17:30:08.750Z,99763.16
2023-04-04T17:32:39.093Z,99758.98
2023-04-04T17:35:10.764Z,99758.09
2023-04-04T17:37:45.426Z,99756.19
2023-04-04T17:40:16.423Z,99755.65
2023-04-04T17:42:46.788Z,99755.09
2023-04-04T17:45:15.601Z,99753.70
2023-04-04T17:47:46.420Z,99750.13
2023-04-04T17:50:16.483Z,99749.86
2023-04-04T17:52:49.554Z,99753.07
2023-04-04T17:55:23.233Z,99757.27
2023-04-04T17:57:52.809Z,99758.77
2023-04-04T18:00:24.355Z,99759.81
2023-04-04T18:02:53.227Z,99768.07
2023-04-04T18:05:23.966Z,99769.04
2023-04-04T18:07:53.564Z,99769.53
2023-04-04T18:10:23.922Z,99772.33
2023-04-04T18:12:55.354Z,99766.92
2023-04-04T18:15:25.250Z,99767.27
2023-04-04T18:18:13.350Z,99763.19
2023-04-04T18:20:59.699Z,99764.27
2023-04-04T18:23:35.779Z,99763.77
2023-04-04T18:26:04.972Z,99761.46
2023-04-04T18:28:35.598Z,99762.06
2023-04-04T18:31:07.639Z,99767.55
2023-04-04T18:33:37.464Z,99764.15
2023-04-04T18:36:06.672Z,99761.98
2023-04-04T18:38:37.713Z,99755.75
2023-04-04T18:41:09.605Z,99759.86
2023-04-04T18:43:38.493Z,99757.40
2023-04-04T18:46:10.566Z,99763.69
2023-04-04T18:48:46.621Z,99761.14
2023-04-04T18:51:24.976Z,99763.80
2023-04-04T18:54:05.154Z,99763.38
2023-04-04T18:56:37.181Z,99766.45
2023-04-04T18:59:11.758Z,99766.57
2023-04-04T19:01:50.411Z,99766.58
2023-04-04T19:04:20.882Z,99765.02
2023-04-04T19:06:54.160Z,99773.61
2023-04-04T19:09:24.639Z,99776.52
2023-04-04T19:11:56.060Z,99784.42
2023-04-04T19:14:27.661Z,99787.52
2023-04-04T19:16:59.474Z,99796.60
2023-04-04T19:19:33.154Z,99800.33
2023-04-04T19:22:09.756Z,99803.85
2023-04-04T19:25:08.856Z,99804.83
2023-04-04T19:27:56.366Z,99802.95
2023-04-04T19:30:45.128Z,99800.73
2023-04-04T19:33:18.957Z,99790.46
2023-04-04T19:36:02.304Z,99784.09
2023-04-04T19:38:37.691Z,99765.27
2023-04-04T19:41:18.775Z,99744.36
2023-04-04T19:43:50.918Z,99738.76
2023-04-04T19:46:31.647Z,99735.41
2023-04-04T19:49:16.114Z,99725.14
2023-04-04T19:51:55.771Z,99718.60
2023-04-04T19:54:28.756Z,99714.37
2023-04-04T19:57:08.574Z,99721.20
2023-04-04T20:00:09.319Z,99727.64
2023-04-04T20:02:52.835Z,99738.23
2023-04-04T20:05:32.603Z,99744.80
2023-04-04T20:08:04.400Z,99751.25
2023-04-04T20:10:47.070Z,99762.36
2023-04-04T20:13:41.138Z,99769.66
2023-04-04T20:16:17.926Z,99771.03
2023-04-04T20:18:49.044Z,99768.55
2023-04-04T20:21:23.564Z,99769.02
2023-04-04T20:23:56.678Z,99769.73
2023-04-04T20:26:36.374Z,99776.20
2023-04-04T20:29:09.287Z,99787.26
2023-04-04T20:31:51.629Z,99783.66
2023-04-04T20:34:37.448Z,99782.57
2023-04-04T20:37:26.723Z,99781.27
2023-04-04T20:40:02.102Z,99784.96
2023-04-04T20:42:38.340Z,99778.98
2023-04-04T20:45:10.477Z,99779.54
2023-04-04T20:47:58.056Z,99775.90
2023-04-04T20:50:48.700Z,99774.67
2023-04-04T20:53:19.642Z,99777.36
2023-04-04T20:55:54.540Z,99772.02
2023-04-04T20:58:30.620Z,99771.98
2023-04-04T21:01:01.969Z,99766.56
2023-04-04T21:03:39.554Z,99762.11
2023-04-04T21:06:14.424Z,99761.48
2023-04-04T21:08:52.914Z,99759.25
2023-04-04T21:11:33.645Z,99749.73
2023-04-04T21:14:06.677Z,99738.21
2023-04-04T21:16:38.426Z,99736.11
2023-04-04T21:19:10.205Z,99733.65
2023-04-04T21:21:42.903Z,99732.82
2023-04-04T21:24:13.294Z,99740.21
2023-04-04T21:26:42.181Z,99739.52
2023-04-04T21:29:23.320Z,99736.44
2023-04-04T21:32:00.523Z,99726.73
2023-04-04T21:34:30.619Z,99723.89
2023-04-04T21:37:03.508Z,99717.80
2023-04-04T21:39:34.624Z,99712.61
2023-04-04T21:42:07.968Z,99713.61
2023-04-04T21:44:40.813Z,99713.16
2023-04-04T21:47:10.018Z,99714.83
2023-04-04T21:49:39.101Z,99715.60
2023-04-04T21:52:11.897Z,99716.22
2023-04-04T21:54:41.505Z,99713.22
2023-04-04T21:57:13.100Z,99708.72
2023-04-04T21:59:42.477Z,99705.30
2023-04-04T22:02:16.493Z,99701.11
2023-04-04T22:04:48.027Z,99697.17
2023-04-04T22:07:18.073Z,99698.89
2023-04-04T22:09:47.708Z,99703.21
2023-04-04T22:12:19.612Z,99701.34
2023-04-04T22:14:50.741Z,99699.65
2023-04-04T22:17:23.515Z,99692.57
2023-04-04T22:20:11.460Z,99687.59
2023-04-04T22:22:44.021Z,99687.10
2023-04-04T22:25:17.957Z,99689.81
2023-04-04T22:27:52.319Z,99687.03
2023-04-04T22:30:22.930Z,99688.62
2023-04-04T22:32:53.210Z,99692.20
2023-04-04T22:35:22.513Z,99692.71
2023-04-04T22:37:50.902Z,99686.09
2023-04-04T22:40:19.552Z,99674.74
2023-04-04T22:42:49.045Z,99675.20
2023-04-04T22:45:22.063Z,99684.70
2023-04-04T22:47:50.662Z,99682.90
2023-04-04T22:50:23.541Z,99683.83
2023-04-04T22:52:55.757Z,99686.98
2023-04-04T22:55:25.063Z,99676.52
2023-04-04T22:57:58.847Z,99676.48
2023-04-04T23:00:27.250Z,99665.20
2023-04-04T23:03:16.117Z,99657.73
2023-04-04T23:05:46.334Z,99658.74
2023-04-04T23:08:17.597Z,99651.86
2023-04-04T23:17:14.318Z,99663.65
2023-04-04T23:19:45.920Z,99665.97
2023-04-04T23:22:17.802Z,99666.45
2023-04-04T23:24:48.792Z,99656.52
2023-04-04T23:27:22.083Z,99642.38
2023-04-04T23:29:52.089Z,99643.63
2023-04-04T23:32:20.406Z,99654.53
2023-04-04T23:34:49.814Z,99657.58
2023-04-04T23:37:18.982Z,99655.78
2023-04-04T23:39:53.607Z,99647.96
2023-04-04T23:42:24.820Z,99642.60
2023-04-04T23:44:53.516Z,99643.24
2023-04-04T23:47:23.434Z,99636.88
2023-04-04T23:49:52.841Z,99636.25
2023-04-04T23:52:22.584Z,99646.93
2023-04-04T23:54:54.138Z,99646.73
2023-04-04T23:57:23.241Z,99633.75
2023-04-04T23:59:52.497Z,99641.99
